createdAt,value
2019-04-23T00:01:23.244Z,43.99
2019-04-23T00:03:41.612Z,44.12
2019-04-23T00:06:21.793Z,44.45
2019-04-23T00:08:54.494Z,44.76
2019-04-23T00:11:15.639Z,44.79
2019-04-23T00:13:45.362Z,44.78
2019-04-23T00:16:21.931Z,45.05
2019-04-23T00:18:46.094Z,45.34
2019-04-23T00:21:20.209Z,45.57
2019-04-23T00:23:59.632Z,45.67
2019-04-23T00:26:24.771Z,45.97
2019-04-23T00:28:51.457Z,46.14
2019-04-23T00:31:20.954Z,46.62
2019-04-23T00:33:40.937Z,46.68
2019-04-23T00:36:22.949Z,46.90
2019-04-23T00:38:44.750Z,47.01
2019-04-23T00:41:16.508Z,47.15
2019-04-23T00:43:52.741Z,47.28
2019-04-23T00:46:15.589Z,47.48
2019-04-23T00:48:52.152Z,48.02
2019-04-23T00:51:16.868Z,48.15
2019-04-23T00:53:43.835Z,48.48
2019-04-23T00:56:33.363Z,48.54
2019-04-23T00:58:49.524Z,48.85
2019-04-23T01:01:19.908Z,49.20
2019-04-23T01:03:50.170Z,49.64
2019-04-23T01:06:19.317Z,49.60
2019-04-23T01:08:50.856Z,49.70
2019-04-23T01:11:21.093Z,49.90
2019-04-23T01:13:51.185Z,50.34
2019-04-23T01:16:16.413Z,50.66
2019-04-23T01:18:53.991Z,50.81
2019-04-23T01:21:05.622Z,51.03
2019-04-23T01:23:42.411Z,50.82
2019-04-23T01:26:26.522Z,51.33
2019-04-23T01:29:03.354Z,51.70
2019-04-23T01:31:39.480Z,51.82
2019-04-23T01:34:04.129Z,51.85
2019-04-23T01:36:34.731Z,52.01
2019-04-23T01:39:08.240Z,52.34
2019-04-23T01:41:33.585Z,52.95
2019-04-23T01:43:56.326Z,52.76
2019-04-23T01:46:38.722Z,52.91
2019-04-23T01:49:07.660Z,53.37
2019-04-23T01:51:41.473Z,53.67
2019-04-23T01:54:06.774Z,53.70
2019-04-23T01:56:33.673Z,53.76
2019-04-23T01:59:05.203Z,54.15
2019-04-23T02:01:47.544Z,54.11
2019-04-23T02:04:09.630Z,54.39
2019-04-23T02:06:50.484Z,54.68
2019-04-23T02:09:05.043Z,54.88
2019-04-23T02:11:37.716Z,55.49
2019-04-23T02:14:09.476Z,55.68
2019-04-23T02:16:38.824Z,55.86
2019-04-23T02:19:09.967Z,56.09
2019-04-23T02:21:46.921Z,56.02
2019-04-23T02:24:14.710Z,56.31
2019-04-23T02:29:23.504Z,57.01
2019-04-23T02:34:35.703Z,57.84
2019-04-23T02:37:00.372Z,58.16
2019-04-23T02:39:22.068Z,57.90
2019-04-23T02:41:58.323Z,58.42
2019-04-23T02:51:54.638Z,59.48
2019-04-23T02:59:42.287Z,60.49
2019-04-23T03:02:49.565Z,60.73
2019-04-23T03:04:28.779Z,60.86
2019-04-23T03:06:56.103Z,61.35
2019-04-23T03:09:23.417Z,61.77
2019-04-23T03:11:58.342Z,61.86
2019-04-23T03:14:23.223Z,63.02
2019-04-23T03:19:23.917Z,63.08
2019-04-23T03:29:40.510Z,64.05
2019-04-23T03:39:50.011Z,65.25
2019-04-23T03:47:10.820Z,66.04
2019-04-23T03:49:40.966Z,66.35
2019-04-23T03:52:14.264Z,66.36
2019-04-23T04:02:27.023Z,67.60
2019-04-23T04:04:38.964Z,67.51
2019-04-23T04:07:20.027Z,68.08
2019-04-23T04:09:45.749Z,68.40
2019-04-23T04:12:16.577Z,68.39
2019-04-23T04:22:18.387Z,69.46
2019-04-23T04:29:47.338Z,69.28
2019-04-23T04:32:03.628Z,70.09
2019-04-23T04:42:10.367Z,70.69
2019-04-23T04:47:09.620Z,70.48
2019-04-23T04:54:30.915Z,71.17
2019-04-23T04:57:23.482Z,71.26
2019-04-23T04:59:57.623Z,71.33
2019-04-23T05:05:16.766Z,71.58
2019-04-23T05:09:58.696Z,71.43
2019-04-23T05:12:21.959Z,71.37
2019-04-23T05:14:52.862Z,71.19
2019-04-23T05:17:48.438Z,71.24
2019-04-23T05:20:05.676Z,71.24
2019-04-23T05:22:36.159Z,70.53
2019-04-23T05:25:02.094Z,70.59
2019-04-23T05:27:41.904Z,70.18
2019-04-23T05:30:04.667Z,70.25
2019-04-23T05:32:34.295Z,69.48
2019-04-23T05:35:07.531Z,69.28
2019-04-23T05:37:47.449Z,69.41
2019-04-23T05:40:02.712Z,69.06
2019-04-23T05:42:37.932Z,68.26
2019-04-23T05:47:33.391Z,67.95
2019-04-23T05:50:10.031Z,67.67
2019-04-23T05:52:36.018Z,67.49
2019-04-23T05:55:02.425Z,67.30
2019-04-23T05:57:34.318Z,67.36
2019-04-23T06:00:02.376Z,66.53
2019-04-23T06:02:33.685Z,66.21
2019-04-23T06:05:05.916Z,65.94
2019-04-23T06:07:38.536Z,65.53
2019-04-23T06:10:05.193Z,65.54
2019-04-23T06:12:31.950Z,65.20
2019-04-23T06:15:05.141Z,64.68
2019-04-23T06:17:32.326Z,64.40
2019-04-23T06:20:28.476Z,64.22
2019-04-23T06:22:38.999Z,63.42
2019-04-23T06:25:35.763Z,63.42
2019-04-23T06:27:35.240Z,62.55
2019-04-23T06:30:04.561Z,62.84
2019-04-23T06:32:34.135Z,62.16
2019-04-23T06:35:18.477Z,61.44
2019-04-23T06:37:49.541Z,61.27
2019-04-23T06:40:05.333Z,60.85
2019-04-23T06:42:39.258Z,60.07
2019-04-23T06:45:01.092Z,60.13
2019-04-23T06:47:56.361Z,59.77
2019-04-23T06:52:25.415Z,58.73
2019-04-23T06:55:08.958Z,58.36
2019-04-23T06:57:44.193Z,58.17
2019-04-23T07:00:21.172Z,57.96
2019-04-23T07:02:42.094Z,57.98
2019-04-23T07:05:14.103Z,57.28
2019-04-23T07:10:07.518Z,56.82
2019-04-23T07:12:36.457Z,56.54
2019-04-23T07:15:33.450Z,56.55
2019-04-23T07:17:32.416Z,56.30
2019-04-23T07:20:13.227Z,55.79
2019-04-23T07:22:38.710Z,55.21
2019-04-23T07:25:13.491Z,55.28
2019-04-23T07:27:31.697Z,54.88
2019-04-23T07:30:11.510Z,54.37
2019-04-23T07:32:35.952Z,54.54
2019-04-23T07:35:16.180Z,54.36
2019-04-23T07:37:40.039Z,53.75
2019-04-23T07:45:35.368Z,53.17
2019-04-23T07:48:11.219Z,52.94
2019-04-23T07:50:39.265Z,52.82
2019-04-23T07:55:56.428Z,51.97
2019-04-23T07:58:14.256Z,51.45
2019-04-23T08:00:47.017Z,52.03
2019-04-23T08:03:17.327Z,52.02
2019-04-23T08:05:49.727Z,51.50
2019-04-23T08:08:07.136Z,50.95
2019-04-23T08:10:46.633Z,50.72
2019-04-23T08:13:16.135Z,50.55
2019-04-23T08:15:41.443Z,49.57
2019-04-23T08:18:15.935Z,49.66
2019-04-23T08:20:47.444Z,49.54
2019-04-23T08:23:10.075Z,49.80
2019-04-23T08:25:52.457Z,49.36
2019-04-23T08:28:35.471Z,48.95
2019-04-23T08:30:53.784Z,49.63
2019-04-23T08:33:17.310Z,48.41
2019-04-23T08:35:57.639Z,47.92
2019-04-23T08:38:26.041Z,48.11
2019-04-23T08:41:06.018Z,47.13
2019-04-23T08:45:58.241Z,46.94
2019-04-23T08:51:03.461Z,46.73
2019-04-23T08:53:40.754Z,46.16
2019-04-23T08:56:00.385Z,46.40
2019-04-23T09:01:00.601Z,45.70
2019-04-23T09:03:30.162Z,44.72
2019-04-23T09:11:13.740Z,44.60
2019-04-23T09:13:51.718Z,43.14
2019-04-23T09:18:27.084Z,43.41
2019-04-23T09:20:55.266Z,43.02
2019-04-23T09:23:46.930Z,43.70
2019-04-23T09:26:00.838Z,44.11
2019-04-23T09:31:11.651Z,43.12
2019-04-23T09:33:58.611Z,43.15
2019-04-23T09:36:25.754Z,42.66
2019-04-23T09:39:00.415Z,42.31
2019-04-23T09:41:44.962Z,42.16
2019-04-23T09:44:41.087Z,40.70
2019-04-23T09:47:00.835Z,41.34
2019-04-23T09:49:26.385Z,40.63
2019-04-23T09:52:01.038Z,40.51
2019-04-23T09:54:27.235Z,40.74
2019-04-23T09:56:52.694Z,40.35
2019-04-23T09:59:33.853Z,40.04
2019-04-23T10:01:48.338Z,39.03
2019-04-23T10:04:13.120Z,38.98
2019-04-23T10:06:32.536Z,38.35
2019-04-23T10:09:02.106Z,38.79
2019-04-23T10:11:28.579Z,37.39
2019-04-23T10:13:58.621Z,38.19
2019-04-23T10:16:30.343Z,37.51
2019-04-23T10:18:57.477Z,38.12
2019-04-23T10:21:25.968Z,38.35
2019-04-23T10:23:55.080Z,38.00
2019-04-23T10:26:24.126Z,37.57
2019-04-23T10:28:55.934Z,37.28
2019-04-23T10:31:25.149Z,37.19
2019-04-23T10:33:53.627Z,36.41
2019-04-23T10:36:25.862Z,36.65
2019-04-23T10:39:00.594Z,34.50
2019-04-23T10:41:23.338Z,35.10
2019-04-23T10:43:56.323Z,35.10
2019-04-23T10:47:12.246Z,34.53
2019-04-23T10:49:53.621Z,34.96
2019-04-23T10:54:52.324Z,35.41
2019-04-23T10:57:17.122Z,34.35
2019-04-23T10:59:44.993Z,34.49
2019-04-23T11:07:28.418Z,33.67
2019-04-23T11:12:32.983Z,33.71
2019-04-23T11:14:57.972Z,33.97
2019-04-23T11:17:36.405Z,33.01
2019-04-23T11:19:56.455Z,33.52
2019-04-23T11:25:00.112Z,33.01
2019-04-23T11:27:29.514Z,32.69
2019-04-23T11:30:00.108Z,34.13
2019-04-23T11:37:37.962Z,32.50
2019-04-23T11:42:26.198Z,32.24
2019-04-23T11:44:58.214Z,32.11
2019-04-23T11:48:07.713Z,32.12
2019-04-23T11:50:13.940Z,31.99
2019-04-23T11:52:36.405Z,32.45
2019-04-23T11:55:00.509Z,32.91
2019-04-23T12:02:54.312Z,32.64
2019-04-23T12:05:41.224Z,31.57
2019-04-23T12:08:11.538Z,31.27
2019-04-23T12:10:53.220Z,31.17
2019-04-23T12:13:13.117Z,30.40
2019-04-23T12:18:18.116Z,30.76
2019-04-23T12:23:25.473Z,31.45
2019-04-23T12:25:48.382Z,31.32
2019-04-23T12:28:18.106Z,31.20
2019-04-23T12:30:45.311Z,31.47
2019-04-23T12:33:20.717Z,31.76
2019-04-23T12:35:40.455Z,32.07
2019-04-23T12:40:45.691Z,32.13
2019-04-23T12:43:17.370Z,31.60
2019-04-23T12:48:31.387Z,32.03
2019-04-23T12:50:50.071Z,31.92
2019-04-23T12:53:27.043Z,31.85
2019-04-23T12:55:52.326Z,32.47
2019-04-23T12:58:20.389Z,32.78
2019-04-23T13:00:43.758Z,32.57
2019-04-23T13:05:37.401Z,31.62
2019-04-23T13:10:45.315Z,31.56
2019-04-23T13:13:23.888Z,32.21
2019-04-23T13:18:17.595Z,32.21
2019-04-23T13:20:41.799Z,32.20
2019-04-23T13:25:57.237Z,31.37
2019-04-23T13:31:06.912Z,30.92
2019-04-23T13:33:40.920Z,30.92
2019-04-23T13:36:08.395Z,31.29
2019-04-23T13:41:09.187Z,31.06
2019-04-23T13:48:24.944Z,31.25
2019-04-23T13:51:08.825Z,31.23
2019-04-23T13:53:42.690Z,31.49
2019-04-23T13:56:19.232Z,31.37
2019-04-23T13:58:38.713Z,31.16
2019-04-23T14:01:18.599Z,31.26
2019-04-23T14:03:40.672Z,31.06
2019-04-23T14:09:28.471Z,30.61
2019-04-23T14:11:19.818Z,30.85
2019-04-23T14:13:49.767Z,31.47
2019-04-23T14:16:25.329Z,31.13
2019-04-23T14:21:19.025Z,31.72
2019-04-23T14:26:29.521Z,31.26
2019-04-23T14:28:46.424Z,31.46
2019-04-23T14:31:13.473Z,31.64
2019-04-23T14:36:14.090Z,31.92
2019-04-23T14:38:44.676Z,32.00
2019-04-23T14:43:58.104Z,31.97
2019-04-23T14:46:34.320Z,32.69
2019-04-23T14:48:51.794Z,31.64
2019-04-23T14:51:34.261Z,31.63
2019-04-23T14:58:57.459Z,31.62
2019-04-23T15:01:27.425Z,31.73
2019-04-23T15:03:48.999Z,32.01
2019-04-23T15:13:52.050Z,31.90
2019-04-23T15:16:28.332Z,32.04
2019-04-23T15:19:11.201Z,32.71
2019-04-23T15:21:47.445Z,33.15
2019-04-23T15:24:14.131Z,33.16
2019-04-23T15:28:43.707Z,33.73
2019-04-23T15:31:51.235Z,34.01
2019-04-23T15:34:10.719Z,33.46
2019-04-23T15:39:11.660Z,33.83
2019-04-23T15:41:43.795Z,33.94
2019-04-23T15:44:08.648Z,34.22
2019-04-23T15:46:58.095Z,34.38
2019-04-23T15:49:17.833Z,34.52
2019-04-23T16:01:34.035Z,34.89
2019-04-23T16:03:40.877Z,34.75
2019-04-23T16:06:10.724Z,35.03
2019-04-23T16:14:16.988Z,36.36
2019-04-23T16:16:47.985Z,36.35
2019-04-23T16:19:13.683Z,36.78
2019-04-23T16:21:51.407Z,37.04
2019-04-23T16:24:13.488Z,36.89
2019-04-23T16:26:55.900Z,37.38
2019-04-23T16:34:19.249Z,37.99
2019-04-23T16:36:43.791Z,38.16
2019-04-23T16:44:21.905Z,38.84
2019-04-23T16:46:50.249Z,38.48
2019-04-23T16:49:20.016Z,38.68
2019-04-23T16:52:02.059Z,38.61
2019-04-23T16:57:17.909Z,39.36
2019-04-23T17:01:50.461Z,40.01
2019-04-23T17:04:24.376Z,40.14
2019-04-23T17:06:55.958Z,40.66
2019-04-23T17:09:21.538Z,40.76
2019-04-23T17:16:44.390Z,41.22
2019-04-23T17:19:26.239Z,41.66
2019-04-23T17:22:01.117Z,41.89
2019-04-23T17:26:59.552Z,42.15
2019-04-23T17:29:21.466Z,42.25
2019-04-23T17:31:45.538Z,42.47
2019-04-23T17:34:32.183Z,42.93
2019-04-23T17:39:27.450Z,43.35
2019-04-23T17:47:13.451Z,43.27
2019-04-23T17:49:56.887Z,43.38
2019-04-23T17:54:50.052Z,43.70
2019-04-23T17:57:15.048Z,44.03
2019-04-23T18:00:11.610Z,44.15
2019-04-23T18:07:37.767Z,44.71
2019-04-23T18:10:01.264Z,44.80
2019-04-23T18:12:31.171Z,44.91
2019-04-23T18:14:52.704Z,45.09
2019-04-23T18:17:26.703Z,45.53
2019-04-23T18:19:56.406Z,45.52
2019-04-23T18:22:35.784Z,45.53
2019-04-23T18:25:09.578Z,45.80
2019-04-23T18:27:42.489Z,46.43
2019-04-23T18:30:11.804Z,46.60
2019-04-23T18:38:16.607Z,47.02
2019-04-23T18:40:54.332Z,47.27
2019-04-23T18:43:20.650Z,47.31
2019-04-23T18:45:49.906Z,47.62
2019-04-23T18:51:03.456Z,47.93
2019-04-23T18:53:40.639Z,47.85
2019-04-23T18:58:47.555Z,48.14
2019-04-23T19:01:05.063Z,48.33
2019-04-23T19:04:07.168Z,48.42
2019-04-23T19:09:04.326Z,48.72
2019-04-23T19:11:59.840Z,48.79
2019-04-23T19:14:40.899Z,49.16
2019-04-23T19:17:08.929Z,49.15
2019-04-23T19:19:28.501Z,49.41
2019-04-23T19:24:28.570Z,49.97
2019-04-23T19:29:35.017Z,50.45
2019-04-23T19:31:56.921Z,50.65
2019-04-23T19:44:31.337Z,51.91
2019-04-23T19:49:31.638Z,52.45
2019-04-23T19:54:39.277Z,52.72
2019-04-23T19:56:59.860Z,52.86
2019-04-23T19:59:47.960Z,53.13
2019-04-23T20:02:00.180Z,53.24
2019-04-23T20:04:31.865Z,53.22
2019-04-23T20:12:00.968Z,54.01
2019-04-23T20:14:34.641Z,54.04
2019-04-23T20:17:21.464Z,54.24
2019-04-23T20:19:37.600Z,54.33
2019-04-23T20:22:00.339Z,54.25
2019-04-23T20:24:41.814Z,54.72
2019-04-23T20:27:05.971Z,54.90
2019-04-23T20:34:55.109Z,55.56
2019-04-23T20:37:12.580Z,55.54
2019-04-23T20:39:53.505Z,55.68
2019-04-23T20:49:47.134Z,56.21
2019-04-23T20:52:10.494Z,56.56
2019-04-23T20:57:42.571Z,56.84
2019-04-23T21:00:01.534Z,57.17
2019-04-23T21:03:00.341Z,57.23
2019-04-23T21:05:15.464Z,57.25
2019-04-23T21:10:27.751Z,57.56
2019-04-23T21:12:57.888Z,57.74
2019-04-23T21:17:55.868Z,58.01
2019-04-23T21:22:45.283Z,58.20
2019-04-23T21:25:16.029Z,58.44
2019-04-23T21:27:57.250Z,58.41
2019-04-23T21:30:53.684Z,58.66
2019-04-23T21:36:05.436Z,59.11
2019-04-23T21:38:37.430Z,59.34
2019-04-23T21:41:06.051Z,59.41
2019-04-23T21:43:59.281Z,59.60
2019-04-23T21:46:15.233Z,60.12
2019-04-23T21:48:57.852Z,60.28
2019-04-23T21:51:11.465Z,60.26
2019-04-23T21:53:42.139Z,60.24
2019-04-23T21:56:08.636Z,60.49
2019-04-23T21:58:51.416Z,60.55
2019-04-23T22:06:22.173Z,61.05
2019-04-23T22:08:52.849Z,60.90
2019-04-23T22:11:43.861Z,61.02
2019-04-23T22:13:59.524Z,61.39
2019-04-23T22:16:23.427Z,61.58
2019-04-23T22:19:03.983Z,61.76
2019-04-23T22:21:28.958Z,61.72
2019-04-23T22:23:59.545Z,61.67
2019-04-23T22:26:28.567Z,61.68
2019-04-23T22:34:09.279Z,62.77
2019-04-23T22:38:50.629Z,62.67
2019-04-23T22:41:15.905Z,62.90
2019-04-23T22:44:02.131Z,63.18
2019-04-23T22:46:26.094Z,63.58
2019-04-23T22:49:06.308Z,63.59
2019-04-23T22:51:32.571Z,63.91
2019-04-23T22:54:02.811Z,63.68
2019-04-23T22:56:27.418Z,63.94
2019-04-23T22:59:11.993Z,64.25
2019-04-23T23:01:43.173Z,64.25
2019-04-23T23:03:58.996Z,64.43
2019-04-23T23:09:10.430Z,64.72
2019-04-23T23:11:29.750Z,64.99
2019-04-23T23:16:31.817Z,65.06
2019-04-23T23:19:05.177Z,65.36
2019-04-23T23:21:30.737Z,65.59
2019-04-23T23:24:00.889Z,65.84
2019-04-23T23:26:38.266Z,66.06
2019-04-23T23:29:00.825Z,65.77
2019-04-23T23:31:34.456Z,66.05
2019-04-23T23:34:02.640Z,66.36
2019-04-23T23:36:28.056Z,66.31
2019-04-23T23:39:06.758Z,66.57
2019-04-23T23:41:31.822Z,66.43
2019-04-23T23:44:26.356Z,66.88
2019-04-23T23:46:35.499Z,66.89
2019-04-23T23:51:36.466Z,67.28
2019-04-23T23:56:34.763Z,67.41
